Time,TemperatureF,DewpointF,PressureIn,WindDirection,WindDirectionDegrees,WindSpeedMPH,WindSpeedGustMPH,Humidity,HourlyPrecipIn,Conditions,Clouds,dailyrainin,SoftwareType,DateUTC
2013-05-28 00:02:00,54.0,52.0,29.48,SW,214,5.0,8.0,92,0.11,,,1.04,,2013-05-28 06:02:00,
2013-05-28 00:12:00,54.0,52.0,29.48,SW,214,5.0,8.0,92,0.11,,,1.04,,2013-05-28 06:12:00,
2013-05-28 00:21:00,54.0,52.0,29.47,SW,216,5.0,9.0,93,0.12,,,1.07,,2013-05-28 06:21:00,
2013-05-28 00:32:00,54.0,52.0,29.47,SSW,205,6.0,9.0,93,0.12,,,1.09,,2013-05-28 06:32:00,
2013-05-28 00:42:00,54.0,52.0,29.47,SSW,205,6.0,9.0,93,0.12,,,1.09,,2013-05-28 06:42:00,
2013-05-28 00:51:00,54.0,52.0,29.47,SSW,205,6.0,9.0,93,0.12,,,1.09,,2013-05-28 06:51:00,
2013-05-28 01:01:00,54.0,52.0,29.47,SSW,205,6.0,9.0,93,0.12,,,1.09,,2013-05-28 07:01:00,
2013-05-28 03:21:00,53.0,51.0,29.44,SSW,196,2.0,4.0,94,0.00,,,0.93,,2013-05-28 09:21:00,
2013-05-28 03:33:00,52.0,50.0,29.44,SSW,196,0.0,0.0,94,0.00,,,0.93,,2013-05-28 09:33:00,
2013-05-28 03:42:00,52.0,50.0,29.44,SSW,196,0.0,0.0,94,0.00,,,0.93,,2013-05-28 09:42:00,
2013-05-28 03:53:00,52.0,50.0,29.45,SSW,196,0.0,3.0,94,0.00,,,0.93,,2013-05-28 09:53:00,
2013-05-28 04:03:00,52.0,50.0,29.45,SSW,196,0.0,0.0,94,0.00,,,0.93,,2013-05-28 10:03:00,
2013-05-28 04:12:00,52.0,50.0,29.45,SSW,196,0.0,0.0,94,0.00,,,0.93,,2013-05-28 10:12:00,
2013-05-28 04:23:00,52.0,50.0,29.45,SSW,196,0.0,0.0,94,0.00,,,0.93,,2013-05-28 10:23:00,
2013-05-28 04:32:00,52.0,50.0,29.45,SSW,196,0.0,0.0,94,0.00,,,0.93,,2013-05-28 10:32:00,
2013-05-28 06:52:00,51.0,50.0,29.46,SSW,196,2.0,6.0,95,0.00,,,0.94,,2013-05-28 12:52:00,
2013-05-28 07:01:00,52.0,51.0,29.45,SSW,196,2.0,5.0,95,0.00,,,0.94,,2013-05-28 13:01:00,
2013-05-28 07:11:00,52.0,51.0,29.45,SSW,196,2.0,5.0,95,0.00,,,0.94,,2013-05-28 13:11:00,
2013-05-28 07:21:00,52.0,51.0,29.46,South,169,5.0,9.0,95,0.00,,,0.94,,2013-05-28 13:21:00,
2013-05-28 07:32:00,53.0,52.0,29.46,South,186,5.0,8.0,95,0.00,,,0.94,,2013-05-28 13:32:00,
2013-05-28 07:42:00,53.0,52.0,29.46,South,186,5.0,8.0,95,0.00,,,0.94,,2013-05-28 13:42:00,
2013-05-28 07:52:00,54.0,53.0,29.45,South,187,2.0,6.0,95,0.00,,,0.94,,2013-05-28 13:52:00,
2013-05-28 08:02:00,54.0,53.0,29.45,South,187,2.0,6.0,95,0.00,,,0.94,,2013-05-28 14:02:00,
2013-05-28 08:11:00,54.0,53.0,29.45,South,187,2.0,6.0,95,0.00,,,0.94,,2013-05-28 14:11:00,
2013-05-28 08:21:00,54.0,53.0,29.45,South,187,2.0,6.0,95,0.00,,,0.94,,2013-05-28 14:21:00,
2013-05-28 10:23:00,63.0,56.0,29.44,WSW,250,7.0,13.0,79,0.00,,,0.94,,2013-05-28 16:23:00,
2013-05-28 10:33:00,63.0,56.0,29.44,WSW,238,7.0,13.0,78,0.00,,,0.94,,2013-05-28 16:33:00,
2013-05-28 10:42:00,63.0,56.0,29.44,WSW,238,7.0,13.0,78,0.00,,,0.94,,2013-05-28 16:42:00,
2013-05-28 10:52:00,64.0,57.0,29.44,SW,219,10.0,14.0,77,0.00,,,0.94,,2013-05-28 16:52:00,
2013-05-28 11:02:00,65.0,56.0,29.44,SW,219,9.0,13.0,74,0.00,,,0.94,,2013-05-28 17:02:00,
2013-05-28 11:12:00,65.0,56.0,29.44,SW,219,9.0,13.0,74,0.00,,,0.94,,2013-05-28 17:12:00,
2013-05-28 11:22:00,65.0,56.0,29.44,SW,219,9.0,13.0,74,0.00,,,0.94,,2013-05-28 17:22:00,
2013-05-28 11:32:00,65.0,56.0,29.44,WSW,250,9.0,14.0,72,0.00,,,0.94,,2013-05-28 17:32:00,
2013-05-28 11:42:00,65.0,56.0,29.44,WSW,250,9.0,14.0,72,0.00,,,0.94,,2013-05-28 17:42:00,
2013-05-28 11:51:00,65.0,56.0,29.44,WSW,250,9.0,14.0,72,0.00,,,0.94,,2013-05-28 17:51:00,
2013-05-28 14:02:00,68.0,52.0,29.43,West,261,7.0,12.0,56,0.00,,,0.71,,2013-05-28 20:02:00,
2013-05-28 14:11:00,68.0,52.0,29.43,West,261,7.0,12.0,56,0.00,,,0.71,,2013-05-28 20:11:00,
2013-05-28 14:22:00,68.0,52.0,29.43,WNW,300,8.0,11.0,56,0.00,,,0.71,,2013-05-28 20:22:00,
2013-05-28 14:32:00,69.0,52.0,29.43,WNW,284,6.0,11.0,54,0.00,,,0.55,,2013-05-28 20:32:00,
2013-05-28 14:42:00,69.0,52.0,29.43,WNW,284,6.0,11.0,54,0.00,,,0.55,,2013-05-28 20:42:00,
2013-05-28 14:52:00,70.0,55.0,29.43,SW,223,6.0,12.0,59,0.00,,,0.55,,2013-05-28 20:52:00,
2013-05-28 15:02:00,70.0,55.0,29.43,SW,223,6.0,12.0,59,0.00,,,0.55,,2013-05-28 21:02:00,
2013-05-28 15:11:00,70.0,55.0,29.43,SW,223,6.0,12.0,59,0.00,,,0.55,,2013-05-28 21:11:00,
2013-05-28 15:21:00,70.0,55.0,29.43,SW,223,6.0,12.0,59,0.00,,,0.55,,2013-05-28 21:21:00,
2013-05-28 17:32:00,72.0,54.0,29.41,NNW,345,2.0,5.0,53,0.00,,,0.55,,2013-05-28 23:32:00,
2013-05-28 17:42:00,72.0,54.0,29.41,NNW,345,2.0,5.0,53,0.00,,,0.55,,2013-05-28 23:42:00,
2013-05-28 17:52:00,72.0,51.0,29.41,NNW,330,6.0,8.0,48,0.00,,,0.55,,2013-05-28 23:52:00,
2013-05-28 18:02:00,72.0,52.0,29.41,NW,319,3.0,11.0,49,0.00,,,0.55,,2013-05-29 00:02:00,
2013-05-28 18:11:00,72.0,52.0,29.41,NW,319,3.0,11.0,49,0.00,,,0.55,,2013-05-29 00:11:00,
2013-05-28 18:21:00,72.0,51.0,29.41,NW,306,8.0,10.0,48,0.00,,,0.55,,2013-05-29 00:21:00,
2013-05-28 18:32:00,72.0,50.0,29.41,NW,321,4.0,7.0,46,0.00,,,0.51,,2013-05-29 00:32:00,
2013-05-28 18:42:00,72.0,50.0,29.41,NW,321,4.0,7.0,46,0.00,,,0.51,,2013-05-29 00:42:00,
2013-05-28 18:52:00,72.0,50.0,29.41,NW,321,4.0,7.0,46,0.00,,,0.51,,2013-05-29 00:52:00,
2013-05-28 19:01:00,72.0,50.0,29.41,NW,321,4.0,7.0,46,0.00,,,0.51,,2013-05-29 01:01:00,
2013-05-28 21:02:00,64.0,54.0,29.43,NE,34,2.0,5.0,70,0.00,,,0.24,,2013-05-29 03:02:00,
2013-05-28 21:12:00,64.0,54.0,29.43,NE,34,2.0,5.0,70,0.00,,,0.24,,2013-05-29 03:12:00,
2013-05-28 21:21:00,63.0,53.0,29.43,NE,34,2.0,5.0,70,0.00,,,0.24,,2013-05-29 03:21:00,
2013-05-28 21:33:00,63.0,53.0,29.44,NE,34,1.0,3.0,71,0.00,,,0.24,,2013-05-29 03:33:00,
2013-05-28 21:43:00,63.0,53.0,29.44,NE,34,1.0,3.0,71,0.00,,,0.24,,2013-05-29 03:43:00,
2013-05-28 21:53:00,62.0,53.0,29.44,NE,34,1.0,4.0,73,0.00,,,0.24,,2013-05-29 03:53:00,
2013-05-28 22:02:00,62.0,54.0,29.45,NE,34,2.0,4.0,75,0.00,,,0.24,,2013-05-29 04:02:00,
2013-05-28 22:13:00,62.0,54.0,29.45,NE,34,2.0,4.0,75,0.00,,,0.24,,2013-05-29 04:13:00,
2013-05-28 22:23:00,62.0,54.0,29.45,NE,34,2.0,4.0,75,0.00,,,0.24,,2013-05-29 04:23:00,
2013-05-28 22:33:00,62.0,54.0,29.45,NE,34,2.0,4.0,75,0.00,,,0.24,,2013-05-29 04:33:00,